Time;durP1;ratioP1;P1;durP2;ratioP2;P2;SDS_P1;SDS_P2;PMS_P1;PMS_P2;Temp;Humidity;BMP_temperature;BMP_pressure;BME280_temperature;BME280_humidity;BME280_pressure;Samples;Min_cycle;Max_cycle;Signal;HPM_P1;HPM_P2
2022/06/24 00:01:16;;;;;;;;;;;537.70;2406.40;;;;;;5052498;28;19940;-54
2022/06/24 00:03:45;;;;;;;;;;;537.70;2406.40;;;;;;5052303;28;19943;-71
2022/06/24 00:06:12;;;;;;;;;;;537.60;2406.40;;;;;;5052149;28;19908;-56
2022/06/24 00:08:46;;;;;;;;;;;537.60;2406.40;;;;;;5052419;28;19987;-71
2022/06/24 00:11:12;;;;;;;;;;;537.60;2406.40;;;;;;5052048;28;19911;-72
2022/06/24 00:13:39;;;;;;;;;;;537.60;2406.40;;;;;;5052184;28;19905;-73
2022/06/24 00:16:04;;;;;;;;;;;537.60;2406.40;;;;;;5052373;28;20031;-73
2022/06/24 00:18:30;;;;;;;;;;;537.60;2406.40;;;;;;5051899;28;20393;-54
2022/06/24 00:20:56;;;;;;;;;;;537.60;2406.40;;;;;;5052265;28;19905;-54
2022/06/24 00:23:22;;;;;;;;;;;512.90;2380.80;;;;;;5052104;28;19909;-74
2022/06/24 00:25:48;;;;;;;;;;;537.60;2406.40;;;;;;5052230;28;19905;-68
2022/06/24 00:28:13;;;;;;;;;;;512.90;2380.80;;;;;;5051860;28;19913;-62
2022/06/24 00:30:43;;;;;;;;;;;512.90;2380.80;;;;;;5051895;28;19909;-54
2022/06/24 00:33:10;;;;;;;;;;;512.90;2380.80;;;;;;5051899;28;19905;-66
2022/06/24 00:35:41;;;;;;;;;;;537.60;2406.40;;;;;;5051830;28;19948;-71
2022/06/24 00:38:23;;;;;;;;;;;512.90;2380.80;;;;;;5051862;28;19976;-57
2022/06/24 00:40:50;;;;;;;;;;;512.90;2380.80;;;;;;5051640;28;19906;-70
2022/06/24 00:43:24;;;;;;;;;;;512.90;2380.80;;;;;;5052026;28;19915;-72
2022/06/24 00:45:51;;;;;;;;;;;512.90;2380.80;;;;;;5051768;28;20260;-57
2022/06/24 00:48:18;;;;;;;;;;;512.90;2380.80;;;;;;5051697;28;19904;-73
2022/06/24 00:50:45;;;;;;;;;;;512.90;2380.80;;;;;;5051465;28;20362;-75
2022/06/24 00:53:11;;;;;;;;;;;512.80;2380.80;;;;;;5051252;28;19908;-59
2022/06/24 00:55:37;;;;;;;;;;;512.80;2380.80;;;;;;5051120;28;19935;-63
2022/06/24 00:58:03;;;;;;;;;;;512.90;2380.80;;;;;;5051169;28;19909;-54
2022/06/24 01:00:30;;;;;;;;;;;512.80;2380.80;;;;;;5051151;28;20015;-56
2022/06/24 01:03:00;;;;;;;;;;;512.60;2380.80;;;;;;5051224;28;19911;-72
2022/06/24 01:05:25;;;;;;;;;;;512.60;2380.80;;;;;;5050580;28;19991;-62
2022/06/24 01:07:51;;;;;;;;;;;512.50;2380.80;;;;;;5051146;28;20441;-54
2022/06/24 01:10:17;;;;;;;;;;;512.50;2380.80;;;;;;5051019;28;20180;-71
2022/06/24 01:12:42;;;;;;;;;;;512.50;2380.80;;;;;;5051079;28;20774;-71
2022/06/24 01:15:08;;;;;;;;;;;512.50;2380.80;;;;;;5050990;28;19915;-54
2022/06/24 01:17:34;;;;;;;;;;;512.50;2380.80;;;;;;5051079;28;19904;-70
2022/06/24 01:20:00;;;;;;;;;;;512.40;2380.80;;;;;;5050918;28;19947;-70
2022/06/24 01:22:26;;;;;;;;;;;512.40;2380.80;;;;;;5051204;28;19990;-54
2022/06/24 01:24:52;;;;;;;;;;;512.30;2380.80;;;;;;5050982;28;19904;-73
2022/06/24 01:27:18;;;;;;;;;;;512.30;2380.80;;;;;;5050627;28;19905;-54
2022/06/24 01:29:44;;;;;;;;;;;512.20;2380.80;;;;;;5050918;28;19922;-74
2022/06/24 01:32:09;;;;;;;;;;;512.10;2380.80;;;;;;5050582;28;19954;-55
2022/06/24 01:34:35;;;;;;;;;;;512.10;2380.80;;;;;;5051008;28;19959;-78
2022/06/24 01:37:01;;;;;;;;;;;512.10;2380.80;;;;;;5050748;28;19905;-76
2022/06/24 01:39:27;;;;;;;;;;;512.00;2380.80;;;;;;5050805;28;19904;-54
2022/06/24 01:41:53;;;;;;;;;;;512.00;2380.80;;;;;;5050801;28;19951;-76
2022/06/24 01:44:19;;;;;;;;;;;487.30;2380.80;;;;;;5050805;28;19930;-73
2022/06/24 01:46:45;;;;;;;;;;;487.30;2380.80;;;;;;5050680;28;20359;-76
2022/06/24 01:49:10;;;;;;;;;;;487.30;2380.80;;;;;;5050354;28;19991;-73
2022/06/24 01:51:38;;;;;;;;;;;512.00;2380.80;;;;;;5050486;28;19909;-67
2022/06/24 01:54:03;;;;;;;;;;;512.00;2380.80;;;;;;5050452;28;20374;-71
2022/06/24 01:56:29;;;;;;;;;;;487.30;2380.80;;;;;;5050163;28;19942;-68
2022/06/24 01:58:55;;;;;;;;;;;487.30;2380.80;;;;;;5050193;28;20278;-70
2022/06/24 02:01:20;;;;;;;;;;;487.30;2380.80;;;;;;5050295;28;19913;-71
2022/06/24 02:03:46;;;;;;;;;;;487.30;2380.80;;;;;;5050256;28;19904;-71
2022/06/24 02:06:13;;;;;;;;;;;487.30;2380.80;;;;;;5050014;28;19912;-71
2022/06/24 02:08:39;;;;;;;;;;;487.10;2380.80;;;;;;5050017;28;19912;-54
2022/06/24 02:13:49;;;;;;;;;;;487.10;2380.80;;;;;;5050577;28;20392;-59
2022/06/24 02:16:15;;;;;;;;;;;487.10;2380.80;;;;;;5052698;28;20007;-62
2022/06/24 02:18:40;;;;;;;;;;;487.10;2380.80;;;;;;5054314;28;19909;-53
2022/06/24 02:21:06;;;;;;;;;;;487.10;2380.80;;;;;;5054323;28;19957;-69
2022/06/24 02:23:32;;;;;;;;;;;487.10;2380.80;;;;;;5054096;28;20385;-69
2022/06/24 02:25:58;;;;;;;;;;;487.00;2380.80;;;;;;5054182;28;19999;-54
2022/06/24 02:28:24;;;;;;;;;;;487.00;2380.80;;;;;;5054117;28;19912;-56
2022/06/24 02:30:51;;;;;;;;;;;487.00;2380.80;;;;;;5054352;28;19921;-53
2022/06/24 02:33:17;;;;;;;;;;;486.90;2380.80;;;;;;5054210;28;20351;-69
2022/06/24 02:35:43;;;;;;;;;;;486.90;2380.80;;;;;;5054176;28;19913;-53
2022/06/24 02:38:08;;;;;;;;;;;486.80;2380.80;;;;;;5053895;28;20252;-70
2022/06/24 02:40:46;;;;;;;;;;;486.80;2380.80;;;;;;5054292;28;19904;-70
2022/06/24 02:43:21;;;;;;;;;;;486.80;2380.80;;;;;;5053864;28;19955;-54
2022/06/24 02:45:47;;;;;;;;;;;486.80;2380.80;;;;;;5053948;28;19958;-71
2022/06/24 02:48:13;;;;;;;;;;;486.80;2380.80;;;;;;5054014;28;19905;-54
2022/06/24 02:50:44;;;;;;;;;;;486.80;2380.80;;;;;;5053689;28;19936;-53
2022/06/24 02:53:10;;;;;;;;;;;486.80;2380.80;;;;;;5053905;28;20061;-65
2022/06/24 02:55:36;;;;;;;;;;;486.80;2380.80;;;;;;5053865;28;19920;-60
2022/06/24 02:58:02;;;;;;;;;;;486.80;2380.80;;;;;;5053212;28;19944;-55
2022/06/24 03:00:28;;;;;;;;;;;486.80;2380.80;;;;;;5053390;28;20355;-55
2022/06/24 03:02:53;;;;;;;;;;;486.80;2380.80;;;;;;5053656;28;19904;-59
2022/06/24 03:05:19;;;;;;;;;;;486.80;2380.80;;;;;;5053629;28;19916;-72
2022/06/24 03:07:45;;;;;;;;;;;486.80;2380.80;;;;;;5053478;28;20350;-54
2022/06/24 03:10:10;;;;;;;;;;;486.80;2380.80;;;;;;5053128;28;19909;-67
2022/06/24 03:12:36;;;;;;;;;;;486.80;2380.80;;;;;;5053510;28;19905;-58
2022/06/24 03:15:01;;;;;;;;;;;486.90;2380.80;;;;;;5053174;28;19908;-71
2022/06/24 03:17:27;;;;;;;;;;;486.80;2380.80;;;;;;5053501;28;19905;-69
2022/06/24 03:19:52;;;;;;;;;;;486.90;2380.80;;;;;;5053221;28;19911;-71
2022/06/24 03:22:18;;;;;;;;;;;486.90;2380.80;;;;;;5053167;28;20358;-67
2022/06/24 03:24:43;;;;;;;;;;;487.00;2380.80;;;;;;5053115;28;19999;-72
2022/06/24 03:27:09;;;;;;;;;;;487.10;2380.80;;;;;;5052106;28;19915;-53
2022/06/24 03:29:35;;;;;;;;;;;487.10;2380.80;;;;;;5053132;28;19916;-53
2022/06/24 03:32:00;;;;;;;;;;;487.10;2380.80;;;;;;5052891;28;19905;-55
2022/06/24 03:34:26;;;;;;;;;;;487.20;2380.80;;;;;;5052995;28;19958;-73
2022/06/24 03:36:51;;;;;;;;;;;487.20;2380.80;;;;;;5052991;28;19904;-65
2022/06/24 03:39:17;;;;;;;;;;;487.20;2380.80;;;;;;5052917;28;19905;-74
2022/06/24 03:41:42;;;;;;;;;;;487.20;2380.80;;;;;;5052895;28;19905;-75
2022/06/24 03:44:08;;;;;;;;;;;487.30;2380.80;;;;;;5052641;28;20406;-55
2022/06/24 03:46:34;;;;;;;;;;;487.30;2380.80;;;;;;5052947;28;19909;-74
2022/06/24 03:48:59;;;;;;;;;;;512.00;2380.80;;;;;;5052512;28;20390;-63
2022/06/24 03:51:25;;;;;;;;;;;512.10;2380.80;;;;;;5052562;28;19908;-74
2022/06/24 03:53:50;;;;;;;;;;;512.10;2380.80;;;;;;5052511;28;19911;-67
2022/06/24 03:56:16;;;;;;;;;;;512.10;2380.80;;;;;;5052753;28;19920;-53
2022/06/24 03:58:42;;;;;;;;;;;512.20;2380.80;;;;;;5052121;28;19919;-71
2022/06/24 04:01:07;;;;;;;;;;;512.10;2380.80;;;;;;5052587;28;20292;-73
2022/06/24 04:03:33;;;;;;;;;;;512.20;2380.80;;;;;;5052569;28;19911;-72
2022/06/24 04:05:58;;;;;;;;;;;512.10;2380.80;;;;;;5052310;28;19905;-54
2022/06/24 04:08:24;;;;;;;;;;;512.20;2380.80;;;;;;5052313;28;20358;-69
2022/06/24 04:10:50;;;;;;;;;;;512.40;2380.80;;;;;;5052076;28;19905;-63
2022/06/24 04:13:15;;;;;;;;;;;512.50;2380.80;;;;;;5052234;28;19904;-54
2022/06/24 04:15:49;;;;;;;;;;;512.60;2380.80;;;;;;5051953;28;20332;-53
2022/06/24 04:18:15;;;;;;;;;;;512.60;2380.80;;;;;;5052091;28;19904;-55
2022/06/24 04:20:41;;;;;;;;;;;512.90;2380.80;;;;;;5052044;28;19911;-73
2022/06/24 04:23:07;;;;;;;;;;;537.60;2406.40;;;;;;5052135;28;19904;-61
2022/06/24 04:25:33;;;;;;;;;;;537.80;2406.40;;;;;;5051845;28;20256;-66
2022/06/24 04:27:59;;;;;;;;;;;537.90;2406.40;;;;;;5051747;28;19962;-54
2022/06/24 04:30:24;;;;;;;;;;;538.10;2406.40;;;;;;5052040;28;19912;-74
2022/06/24 04:32:50;;;;;;;;;;;563.70;2432.00;;;;;;5051857;28;19909;-55
2022/06/24 04:35:16;;;;;;;;;;;691.70;2432.00;;;;;;5052016;28;19913;-55
2022/06/24 04:37:41;;;;;;;;;;;768.40;1971.20;;;;;;5051723;28;20278;-57
2022/06/24 04:40:08;;;;;;;;;;;819.70;1792.00;;;;;;5051654;28;19905;-75
2022/06/24 04:42:34;;;;;;;;;;;870.90;1587.20;;;;;;5051736;28;19912;-74
2022/06/24 04:44:59;;;;;;;;;;;921.70;1459.20;;;;;;5052158;28;19909;-55
2022/06/24 04:47:25;;;;;;;;;;;947.50;1382.40;;;;;;5053622;28;20388;-55
2022/06/24 04:49:51;;;;;;;;;;;948.00;1331.20;;;;;;5051655;28;19911;-55
2022/06/24 04:52:16;;;;;;;;;;;973.10;1331.20;;;;;;5051454;28;19904;-75
2022/06/24 04:54:42;;;;;;;;;;;998.40;1331.20;;;;;;5051290;28;19908;-74
2022/06/24 04:57:08;;;;;;;;;;;999.10;1254.40;;;;;;5051264;28;20422;-75
2022/06/24 04:59:33;;;;;;;;;;;1024.40;1203.20;;;;;;5051275;28;19920;-70
2022/06/24 05:01:59;;;;;;;;;;;1049.60;1203.20;;;;;;5051175;28;19914;-55
2022/06/24 05:04:25;;;;;;;;;;;1075.40;1152.00;;;;;;5051454;28;20313;-76
2022/06/24 05:06:50;;;;;;;;;;;1075.50;1126.40;;;;;;5051694;28;19948;-80
2022/06/24 05:09:17;;;;;;;;;;;1075.90;1100.80;;;;;;5054950;28;19905;-75
2022/06/24 05:11:43;;;;;;;;;;;1075.30;1126.40;;;;;;5051333;28;19904;-55
2022/06/24 05:14:08;;;;;;;;;;;1050.30;1152.00;;;;;;5051127;28;19905;-56
2022/06/24 05:16:34;;;;;;;;;;;1075.50;1126.40;;;;;;5051121;28;19913;-56
2022/06/24 05:18:59;;;;;;;;;;;1101.20;1100.80;;;;;;5050997;28;20355;-56
2022/06/24 05:21:25;;;;;;;;;;;1126.70;1049.60;;;;;;5051051;28;19966;-55
2022/06/24 05:23:51;;;;;;;;;;;1126.80;1049.60;;;;;;5050851;28;19904;-78
2022/06/24 05:26:17;;;;;;;;;;;1152.50;1024.00;;;;;;5050674;28;19911;-59
2022/06/24 05:28:42;;;;;;;;;;;1152.90;972.80;;;;;;5050568;28;19978;-56
2022/06/24 05:31:08;;;;;;;;;;;1178.00;972.80;;;;;;5050606;28;20244;-58
2022/06/24 05:33:34;;;;;;;;;;;1203.60;947.20;;;;;;5051078;28;19911;-78
2022/06/24 05:36:00;;;;;;;;;;;1178.20;947.20;;;;;;5050633;28;19952;-66
2022/06/24 05:38:25;;;;;;;;;;;1127.10;1024.00;;;;;;5051079;28;19994;-76
2022/06/24 05:40:51;;;;;;;;;;;1127.30;1024.00;;;;;;5050637;28;20009;-65
2022/06/24 05:43:20;;;;;;;;;;;1177.80;972.80;;;;;;5050698;28;20275;-76
2022/06/24 05:45:46;;;;;;;;;;;1203.30;947.20;;;;;;5050633;28;20355;-78
2022/06/24 05:48:12;;;;;;;;;;;1203.30;972.80;;;;;;5050608;28;20328;-56
2022/06/24 05:50:39;;;;;;;;;;;1203.20;972.80;;;;;;5050041;28;19908;-56
2022/06/24 05:55:49;;;;;;;;;;;1254.40;921.60;;;;;;5050408;28;19919;-56
2022/06/24 05:58:15;;;;;;;;;;;1280.00;870.40;;;;;;5050230;28;19909;-55
2022/06/24 06:00:41;;;;;;;;;;;1280.00;844.80;;;;;;5050128;28;19970;-55
2022/06/24 06:03:07;;;;;;;;;;;1255.30;870.40;;;;;;5050442;28;19905;-55
2022/06/24 06:05:32;;;;;;;;;;;1229.30;896.00;;;;;;5050336;28;19904;-54
2022/06/24 06:07:58;;;;;;;;;;;1229.20;896.00;;;;;;5050539;28;19908;-72
2022/06/24 06:10:23;;;;;;;;;;;1229.70;870.40;;;;;;5050315;28;19905;-55
2022/06/24 06:12:49;;;;;;;;;;;1254.60;896.00;;;;;;5050195;28;20015;-55
2022/06/24 06:15:15;;;;;;;;;;;1229.30;870.40;;;;;;5050183;28;19920;-65
2022/06/24 06:17:41;;;;;;;;;;;1228.80;921.60;;;;;;5050050;28;20248;-55
2022/06/24 06:20:07;;;;;;;;;;;1254.90;870.40;;;;;;5050198;28;19905;-71
2022/06/24 06:22:32;;;;;;;;;;;1203.70;896.00;;;;;;5050080;28;19908;-69
2022/06/24 06:24:58;;;;;;;;;;;1203.90;896.00;;;;;;5050298;28;19908;-70
2022/06/24 06:27:23;;;;;;;;;;;1178.50;896.00;;;;;;5050141;28;19915;-58
2022/06/24 06:29:49;;;;;;;;;;;1152.10;972.80;;;;;;5050127;28;20264;-63
2022/06/24 06:32:14;;;;;;;;;;;1203.40;921.60;;;;;;5050234;28;19905;-70
2022/06/24 06:34:40;;;;;;;;;;;1203.40;921.60;;;;;;5049972;28;20278;-56
2022/06/24 06:37:06;;;;;;;;;;;1228.90;896.00;;;;;;5050035;28;19943;-73
2022/06/24 06:39:31;;;;;;;;;;;1204.10;896.00;;;;;;5050198;28;19912;-74
2022/06/24 06:41:57;;;;;;;;;;;1255.30;870.40;;;;;;5050101;28;19905;-57
2022/06/24 06:44:22;;;;;;;;;;;1305.70;819.20;;;;;;5050330;28;20370;-55
2022/06/24 06:46:48;;;;;;;;;;;1229.70;870.40;;;;;;5049962;28;19905;-71
2022/06/24 06:49:14;;;;;;;;;;;1254.80;870.40;;;;;;5050040;28;19908;-56
2022/06/24 06:51:39;;;;;;;;;;;1203.20;921.60;;;;;;5049771;28;19932;-55
2022/06/24 06:54:05;;;;;;;;;;;1254.50;896.00;;;;;;5049941;28;19944;-58
2022/06/24 06:56:31;;;;;;;;;;;1203.90;896.00;;;;;;5049626;28;19913;-56
2022/06/24 06:58:56;;;;;;;;;;;1228.90;896.00;;;;;;5049700;28;20369;-70
2022/06/24 07:01:22;;;;;;;;;;;1228.90;896.00;;;;;;5050044;28;20043;-71
2022/06/24 07:03:47;;;;;;;;;;;1229.00;896.00;;;;;;5053036;28;19905;-57
2022/06/24 07:06:13;;;;;;;;;;;1178.30;896.00;;;;;;5053484;28;20807;-56
2022/06/24 07:08:38;;;;;;;;;;;1203.20;896.00;;;;;;5053411;28;20343;-58
2022/06/24 07:11:04;;;;;;;;;;;1229.70;844.80;;;;;;5053238;28;19911;-71
2022/06/24 07:13:30;;;;;;;;;;;1203.70;870.40;;;;;;5053152;28;19962;-57
2022/06/24 07:15:56;;;;;;;;;;;1254.80;844.80;;;;;;5053437;28;20359;-71
2022/06/24 07:18:21;;;;;;;;;;;1178.10;896.00;;;;;;5053166;28;20389;-76
2022/06/24 07:20:47;;;;;;;;;;;1203.80;870.40;;;;;;5053285;28;19904;-63
2022/06/24 07:23:12;;;;;;;;;;;1255.10;844.80;;;;;;5053156;28;19905;-75
2022/06/24 07:25:38;;;;;;;;;;;1229.20;844.80;;;;;;5053189;28;20035;-77
2022/06/24 07:28:04;;;;;;;;;;;1255.00;844.80;;;;;;5053114;28;19909;-57
2022/06/24 07:30:30;;;;;;;;;;;1254.60;870.40;;;;;;5052950;28;19912;-57
2022/06/24 07:32:56;;;;;;;;;;;1255.00;844.80;;;;;;5052999;28;19958;-57
2022/06/24 07:35:21;;;;;;;;;;;1229.30;844.80;;;;;;5052979;28;19913;-74
2022/06/24 07:37:47;;;;;;;;;;;1229.40;844.80;;;;;;5053204;28;19940;-76
2022/06/24 07:40:12;;;;;;;;;;;1203.30;896.00;;;;;;5052864;28;19911;-57
2022/06/24 07:42:38;;;;;;;;;;;1255.10;819.20;;;;;;5052891;28;19905;-58
2022/06/24 07:45:04;;;;;;;;;;;1229.40;819.20;;;;;;5052757;28;19908;-75
2022/06/24 07:47:29;;;;;;;;;;;1178.20;870.40;;;;;;5052819;28;19909;-72
2022/06/24 07:49:55;;;;;;;;;;;1228.90;870.40;;;;;;5053023;28;19958;-76
2022/06/24 07:52:21;;;;;;;;;;;1229.00;844.80;;;;;;5052747;28;20267;-57
2022/06/24 07:54:46;;;;;;;;;;;1229.70;793.60;;;;;;5052545;28;20370;-57
2022/06/24 07:57:12;;;;;;;;;;;1254.80;819.20;;;;;;5052334;28;20343;-56
2022/06/24 07:59:37;;;;;;;;;;;1229.30;870.40;;;;;;5052412;28;19920;-59
2022/06/24 08:02:05;;;;;;;;;;;1229.00;844.80;;;;;;5052393;28;19905;-56
2022/06/24 08:04:31;;;;;;;;;;;1254.60;844.80;;;;;;5052169;28;20347;-76
2022/06/24 08:06:57;;;;;;;;;;;1229.50;793.60;;;;;;5052262;28;19912;-57
2022/06/24 08:09:24;;;;;;;;;;;1254.80;793.60;;;;;;5052265;28;19912;-76
2022/06/24 08:11:50;;;;;;;;;;;1229.00;819.20;;;;;;5052155;28;19962;-56
2022/06/24 08:14:16;;;;;;;;;;;1203.30;793.60;;;;;;5051821;28;20298;-57
2022/06/24 08:16:42;;;;;;;;;;;1126.50;870.40;;;;;;5051996;28;19913;-56
2022/06/24 08:19:08;;;;;;;;;;;1050.30;972.80;;;;;;5052306;28;19905;-74
2022/06/24 08:21:33;;;;;;;;;;;998.40;998.40;;;;;;5051928;28;19927;-55
2022/06/24 08:23:59;;;;;;;;;;;922.40;1024.00;;;;;;5052062;28;19964;-58
2022/06/24 08:26:25;;;;;;;;;;;921.70;1075.20;;;;;;5052038;28;19904;-56
2022/06/24 08:28:50;;;;;;;;;;;896.10;1100.80;;;;;;5051932;28;19952;-57
2022/06/24 08:31:16;;;;;;;;;;;871.30;1100.80;;;;;;5052059;28;20007;-57
2022/06/24 08:33:41;;;;;;;;;;;896.30;1075.20;;;;;;5051984;28;19909;-67
2022/06/24 08:36:07;;;;;;;;;;;871.30;1075.20;;;;;;5052043;28;19935;-69
2022/06/24 08:38:32;;;;;;;;;;;870.40;998.40;;;;;;5051827;28;20300;-66
2022/06/24 08:40:59;;;;;;;;;;;845.20;1024.00;;;;;;5051700;28;19905;-65
2022/06/24 08:43:29;;;;;;;;;;;845.10;1075.20;;;;;;5051838;28;19996;-63
2022/06/24 08:45:54;;;;;;;;;;;845.40;1075.20;;;;;;5051728;28;20309;-55
2022/06/24 08:48:20;;;;;;;;;;;845.50;1049.60;;;;;;5051841;28;19966;-57
2022/06/24 08:50:47;;;;;;;;;;;870.50;1075.20;;;;;;5064365;28;19917;-68
2022/06/24 08:53:17;;;;;;;;;;;870.40;1075.20;;;;;;5067494;28;19957;-66
2022/06/24 08:55:44;;;;;;;;;;;844.80;1075.20;;;;;;5069807;28;19999;-67
2022/06/24 08:58:12;;;;;;;;;;;820.10;1075.20;;;;;;5069621;28;20392;-61
2022/06/24 09:00:39;;;;;;;;;;;844.80;1075.20;;;;;;5069890;28;19959;-63
2022/06/24 09:03:04;;;;;;;;;;;819.80;1075.20;;;;;;5070544;28;19904;-67
2022/06/24 09:05:30;;;;;;;;;;;819.80;1075.20;;;;;;5069797;28;19913;-56
2022/06/24 09:08:03;;;;;;;;;;;819.70;1126.40;;;;;;5069857;28;19985;-66
2022/06/24 09:10:28;;;;;;;;;;;794.30;1152.00;;;;;;5069808;28;19912;-56
2022/06/24 09:12:54;;;;;;;;;;;819.40;1126.40;;;;;;5069834;28;20270;-57
2022/06/24 09:15:20;;;;;;;;;;;819.60;1075.20;;;;;;5069568;28;19997;-59
2022/06/24 09:17:45;;;;;;;;;;;819.60;1024.00;;;;;;5070042;28;20657;-67
2022/06/24 09:20:13;;;;;;;;;;;819.40;1075.20;;;;;;5069758;28;20247;-56
2022/06/24 09:22:39;;;;;;;;;;;819.30;1100.80;;;;;;5070222;28;19926;-63
2022/06/24 09:25:05;;;;;;;;;;;819.40;1100.80;;;;;;5068742;28;20351;-67
2022/06/24 09:27:31;;;;;;;;;;;794.40;1126.40;;;;;;5069291;28;19988;-65
2022/06/24 09:29:57;;;;;;;;;;;794.20;1152.00;;;;;;5069632;28;19955;-58
2022/06/24 09:32:23;;;;;;;;;;;794.20;1152.00;;;;;;5069710;28;19943;-67
2022/06/24 09:34:58;;;;;;;;;;;794.50;1152.00;;;;;;5069105;28;20418;-58
2022/06/24 09:37:40;;;;;;;;;;;819.30;1152.00;;;;;;5069507;28;20358;-63
2022/06/24 09:40:25;;;;;;;;;;;794.50;1126.40;;;;;;5066002;28;19911;-68
2022/06/24 09:42:55;;;;;;;;;;;794.40;1126.40;;;;;;5070280;28;19937;-65
2022/06/24 09:45:22;;;;;;;;;;;793.70;1152.00;;;;;;5070199;28;19909;-66
2022/06/24 09:47:49;;;;;;;;;;;794.10;1177.60;;;;;;5068884;28;19908;-65
2022/06/24 09:50:15;;;;;;;;;;;794.10;1177.60;;;;;;5068830;28;20275;-68
2022/06/24 09:52:41;;;;;;;;;;;793.80;1152.00;;;;;;5068707;28;19908;-66
2022/06/24 09:55:06;;;;;;;;;;;793.80;1152.00;;;;;;5069087;28;19912;-68
2022/06/24 09:57:32;;;;;;;;;;;794.20;1177.60;;;;;;5068980;28;19908;-57
2022/06/24 10:02:43;;;;;;;;;;;794.20;1152.00;;;;;;5067271;28;19911;-68
2022/06/24 10:05:11;;;;;;;;;;;794.00;1203.20;;;;;;5069026;28;19940;-64
2022/06/24 10:07:37;;;;;;;;;;;794.40;1177.60;;;;;;5069054;28;19905;-69
2022/06/24 10:10:03;;;;;;;;;;;794.40;1152.00;;;;;;5068737;28;20309;-68
2022/06/24 10:12:31;;;;;;;;;;;794.00;1152.00;;;;;;5068839;28;19904;-67
2022/06/24 10:14:58;;;;;;;;;;;793.70;1177.60;;;;;;5068978;28;19908;-68
2022/06/24 10:17:25;;;;;;;;;;;794.20;1177.60;;;;;;5068994;28;19950;-68
2022/06/24 10:19:51;;;;;;;;;;;793.80;1152.00;;;;;;5068845;28;19918;-61
2022/06/24 10:22:36;;;;;;;;;;;793.90;1177.60;;;;;;5068850;28;19959;-67
2022/06/24 10:25:02;;;;;;;;;;;793.70;1177.60;;;;;;5066476;28;19908;-66
2022/06/24 10:27:46;;;;;;;;;;;793.90;1177.60;;;;;;5068806;28;20300;-56
2022/06/24 10:30:12;;;;;;;;;;;793.90;1177.60;;;;;;5067736;28;19909;-58
2022/06/24 10:32:57;;;;;;;;;;;768.80;1152.00;;;;;;5068955;28;19905;-68
2022/06/24 10:35:23;;;;;;;;;;;768.70;1152.00;;;;;;5066308;28;19919;-64
2022/06/24 10:37:53;;;;;;;;;;;768.90;1152.00;;;;;;5071811;28;19904;-57
2022/06/24 10:40:24;;;;;;;;;;;793.90;1203.20;;;;;;5072417;28;19999;-57
2022/06/24 10:43:05;;;;;;;;;;;768.90;1152.00;;;;;;5072814;28;19908;-65
2022/06/24 10:45:34;;;;;;;;;;;768.70;1177.60;;;;;;5071147;28;20336;-57
2022/06/24 10:48:01;;;;;;;;;;;768.80;1177.60;;;;;;5069886;28;20332;-65
2022/06/24 10:50:28;;;;;;;;;;;768.70;1203.20;;;;;;5072343;28;19904;-56
2022/06/24 10:52:56;;;;;;;;;;;768.90;1177.60;;;;;;5070796;28;19918;-68
2022/06/24 10:55:23;;;;;;;;;;;768.60;1177.60;;;;;;5068294;28;20440;-58
2022/06/24 10:57:49;;;;;;;;;;;768.60;1203.20;;;;;;5071034;28;19916;-59
2022/06/24 11:00:14;;;;;;;;;;;768.90;1228.80;;;;;;5071947;28;19920;-68
2022/06/24 11:02:40;;;;;;;;;;;768.60;1203.20;;;;;;5071858;28;19912;-65
2022/06/24 11:05:10;;;;;;;;;;;768.80;1177.60;;;;;;5071737;28;19909;-61
2022/06/24 11:07:42;;;;;;;;;;;768.60;1203.20;;;;;;5072106;28;19905;-68
2022/06/24 11:10:17;;;;;;;;;;;768.70;1177.60;;;;;;5071891;28;19915;-58
2022/06/24 11:12:47;;;;;;;;;;;768.40;1177.60;;;;;;5071678;28;19955;-63
2022/06/24 11:15:13;;;;;;;;;;;768.40;1177.60;;;;;;5071576;28;19920;-61
2022/06/24 11:17:39;;;;;;;;;;;768.40;1203.20;;;;;;5072071;28;20274;-64
2022/06/24 11:20:06;;;;;;;;;;;768.40;1203.20;;;;;;5071225;28;20419;-58
2022/06/24 11:22:40;;;;;;;;;;;768.60;1228.80;;;;;;5070857;28;19912;-56
2022/06/24 11:25:06;;;;;;;;;;;768.40;1228.80;;;;;;5070580;28;20274;-68
2022/06/24 11:27:35;;;;;;;;;;;768.50;1228.80;;;;;;5069912;28;19912;-69
2022/06/24 11:30:00;;;;;;;;;;;768.40;1228.80;;;;;;5069980;28;20261;-61
2022/06/24 11:32:26;;;;;;;;;;;768.70;1228.80;;;;;;5069815;28;19905;-60
2022/06/24 11:34:52;;;;;;;;;;;768.80;1228.80;;;;;;5070683;28;20369;-65
2022/06/24 11:37:24;;;;;;;;;;;768.90;1228.80;;;;;;5071189;28;19908;-62
2022/06/24 11:39:53;;;;;;;;;;;768.70;1228.80;;;;;;5071225;28;19914;-60
2022/06/24 11:42:19;;;;;;;;;;;768.60;1228.80;;;;;;5070849;28;20011;-56
2022/06/24 11:44:45;;;;;;;;;;;768.60;1228.80;;;;;;5070961;28;19904;-56
2022/06/24 11:47:11;;;;;;;;;;;768.60;1254.40;;;;;;5071044;28;19908;-67
2022/06/24 11:49:39;;;;;;;;;;;768.50;1254.40;;;;;;5070568;28;19905;-63
2022/06/24 11:52:05;;;;;;;;;;;768.40;1254.40;;;;;;5071335;28;20278;-58
2022/06/24 11:54:31;;;;;;;;;;;768.60;1280.00;;;;;;5070927;28;19909;-66
2022/06/24 11:56:57;;;;;;;;;;;768.90;1203.20;;;;;;5070808;28;19904;-63
2022/06/24 11:59:23;;;;;;;;;;;768.70;1228.80;;;;;;5070440;28;20282;-57
2022/06/24 12:01:50;;;;;;;;;;;768.40;1228.80;;;;;;5070779;28;19920;-57
2022/06/24 12:04:15;;;;;;;;;;;768.50;1254.40;;;;;;5070988;28;20417;-57
2022/06/24 12:06:42;;;;;;;;;;;768.30;1228.80;;;;;;5070672;28;20053;-56
2022/06/24 12:09:08;;;;;;;;;;;768.40;1254.40;;;;;;5070999;28;20264;-58
2022/06/24 12:11:37;;;;;;;;;;;768.40;1254.40;;;;;;5070087;28;19991;-60
2022/06/24 12:14:04;;;;;;;;;;;768.60;1254.40;;;;;;5070380;28;19950;-57
2022/06/24 12:16:48;;;;;;;;;;;768.60;1228.80;;;;;;5070780;28;19920;-62
2022/06/24 12:19:14;;;;;;;;;;;768.40;1228.80;;;;;;5070615;28;20355;-61
2022/06/24 12:21:39;;;;;;;;;;;768.60;1254.40;;;;;;5070473;28;19931;-57
2022/06/24 12:24:20;;;;;;;;;;;793.70;1280.00;;;;;;5070099;28;19912;-57
2022/06/24 12:26:46;;;;;;;;;;;793.60;1254.40;;;;;;5070955;28;20266;-63
2022/06/24 12:29:12;;;;;;;;;;;768.90;1254.40;;;;;;5072208;28;19904;-64
2022/06/24 12:31:38;;;;;;;;;;;768.90;1254.40;;;;;;5072129;28;19913;-57
2022/06/24 12:34:04;;;;;;;;;;;768.70;1228.80;;;;;;5071836;28;19904;-64
2022/06/24 12:36:36;;;;;;;;;;;768.60;1254.40;;;;;;5071718;28;19957;-62
2022/06/24 12:39:06;;;;;;;;;;;768.90;1228.80;;;;;;5071726;28;20003;-64
2022/06/24 12:41:41;;;;;;;;;;;793.70;1280.00;;;;;;5071859;28;19985;-64
2022/06/24 12:44:07;;;;;;;;;;;794.00;1305.60;;;;;;5071970;28;19905;-57
2022/06/24 12:46:35;;;;;;;;;;;794.00;1280.00;;;;;;5071481;28;19905;-61
2022/06/24 12:51:55;;;;;;;;;;;793.70;1280.00;;;;;;5070333;28;19912;-64
2022/06/24 12:54:20;;;;;;;;;;;793.60;1280.00;;;;;;5069824;28;20355;-63
2022/06/24 12:56:46;;;;;;;;;;;793.70;1305.60;;;;;;5069893;28;19920;-62
2022/06/24 12:59:11;;;;;;;;;;;793.70;1305.60;;;;;;5068974;28;20405;-61
2022/06/24 13:01:44;;;;;;;;;;;794.00;1305.60;;;;;;5069771;28;19909;-63
2022/06/24 13:04:13;;;;;;;;;;;794.10;1280.00;;;;;;5069095;28;19955;-62
2022/06/24 13:06:39;;;;;;;;;;;793.80;1305.60;;;;;;5069451;28;19904;-61
2022/06/24 13:09:05;;;;;;;;;;;793.90;1280.00;;;;;;5069695;28;19904;-62
2022/06/24 13:11:31;;;;;;;;;;;793.80;1280.00;;;;;;5069501;28;19904;-62
2022/06/24 13:13:57;;;;;;;;;;;793.70;1305.60;;;;;;5069723;28;19915;-62
2022/06/24 13:16:23;;;;;;;;;;;793.80;1305.60;;;;;;5068847;28;20354;-63
2022/06/24 13:18:48;;;;;;;;;;;793.80;1305.60;;;;;;5069605;28;20366;-63
2022/06/24 13:21:14;;;;;;;;;;;793.80;1305.60;;;;;;5069369;28;19965;-62
2022/06/24 13:23:40;;;;;;;;;;;793.90;1280.00;;;;;;5069120;28;19909;-61
2022/06/24 13:26:06;;;;;;;;;;;793.70;1280.00;;;;;;5069364;28;20007;-62
2022/06/24 13:28:34;;;;;;;;;;;793.70;1305.60;;;;;;5068480;28;19951;-61
2022/06/24 13:31:00;;;;;;;;;;;793.70;1305.60;;;;;;5069186;28;20344;-62
2022/06/24 13:33:26;;;;;;;;;;;793.80;1305.60;;;;;;5069217;28;19911;-61
2022/06/24 13:35:52;;;;;;;;;;;793.90;1280.00;;;;;;5068911;28;19912;-63
2022/06/24 13:38:18;;;;;;;;;;;793.90;1305.60;;;;;;5069041;28;19909;-62
2022/06/24 13:40:43;;;;;;;;;;;794.00;1305.60;;;;;;5068854;28;19904;-61
2022/06/24 13:43:09;;;;;;;;;;;794.10;1305.60;;;;;;5068433;28;19971;-62
2022/06/24 13:45:35;;;;;;;;;;;793.80;1331.20;;;;;;5069098;28;20375;-62
2022/06/24 13:48:06;;;;;;;;;;;793.90;1305.60;;;;;;5068670;28;19990;-63